Time;durP1;ratioP1;P1;durP2;ratioP2;P2;SDS_P1;SDS_P2;PMS_P1;PMS_P2;Temp;Humidity;BMP_temperature;BMP_pressure;BME280_temperature;BME280_humidity;BME280_pressure;Samples;Min_cycle;Max_cycle;Signal;HPM_P1;HPM_P2
2024/03/29 14:13:49;;;;;;;6.00;2.10;;;;;;;4.61;100.00;143397.20;103252;1310;558127;-65
2024/03/29 14:16:37;;;;;;;4.20;2.00;;;;;;;4.87;100.00;143461.09;105633;1289;142524;-65
2024/03/29 14:19:24;;;;;;;4.50;1.80;;;;;;;5.11;100.00;143517.78;105846;1274;22548;-67
2024/03/29 14:22:19;;;;;;;3.10;1.50;;;;;;;5.20;100.00;143541.50;105788;1289;22552;-67
2024/03/29 14:25:10;;;;;;;4.50;1.90;;;;;;;4.96;100.00;143481.58;105992;1275;22652;-66
2024/03/29 14:27:59;;;;;;;6.70;2.10;;;;;;;4.47;100.00;143362.75;105996;1282;22547;-69
2024/03/29 14:30:45;;;;;;;3.80;1.80;;;;;;;4.15;100.00;143284.41;105810;1275;22547;-64
2024/03/29 14:33:32;;;;;;;3.30;1.70;;;;;;;3.95;100.00;143236.00;105806;1289;25250;-68
2024/03/29 14:36:19;;;;;;;3.50;1.80;;;;;;;3.91;100.00;143226.03;105944;1282;25304;-63
2024/03/29 14:39:06;;;;;;;3.30;1.70;;;;;;;4.08;100.00;143266.92;105842;1275;25275;-67
2024/03/29 14:41:52;;;;;;;4.30;1.80;;;;;;;4.25;100.00;143308.59;105883;1290;22543;-70
2024/03/29 14:44:40;;;;;;;6.20;2.40;;;;;;;4.38;100.00;143340.03;106019;1282;24392;-65
2024/03/29 14:47:27;;;;;;;2.60;1.20;;;;;;;4.39;100.00;143343.78;105825;1289;22554;-67
2024/03/29 14:50:13;;;;;;;4.40;1.50;;;;;;;4.36;100.00;143335.05;105870;1291;25254;-66
2024/03/29 14:53:00;;;;;;;3.90;1.70;;;;;;;4.25;100.00;143309.33;105993;1285;22607;-62
2024/03/29 14:55:46;;;;;;;3.20;1.20;;;;;;;4.14;100.00;143283.88;105823;1289;24259;-68
2024/03/29 14:58:32;;;;;;;2.60;1.30;;;;;;;4.14;100.00;143282.13;105910;1289;22544;-68
2024/03/29 15:01:19;;;;;;;4.30;1.60;;;;;;;4.10;100.00;143274.16;105888;1270;22539;-66
2024/03/29 15:04:05;;;;;;;4.30;1.60;;;;;;;4.09;100.00;143271.66;105806;1275;24379;-66
2024/03/29 15:06:52;;;;;;;3.70;1.70;;;;;;;4.17;100.00;143289.38;105783;1291;22639;-63
2024/03/29 15:09:38;;;;;;;3.30;1.80;;;;;;;4.26;100.00;143312.09;105787;1291;25248;-66
2024/03/29 15:12:25;;;;;;;4.00;1.80;;;;;;;4.35;100.00;143334.30;105812;1291;22543;-63
2024/03/29 15:15:12;;;;;;;4.30;1.70;;;;;;;4.37;100.00;143338.78;105826;1291;22542;-66
2024/03/29 15:17:58;;;;;;;4.90;1.80;;;;;;;4.34;100.00;143332.05;105789;1291;22573;-63
2024/03/29 15:20:57;;;;;;;5.20;1.80;;;;;;;4.29;100.00;143319.06;105805;1291;22546;-68
2024/03/29 15:23:43;;;;;;;4.30;1.60;;;;;;;4.25;100.00;143309.08;106025;1274;25284;-68
2024/03/29 15:26:29;;;;;;;6.40;3.20;;;;;;;4.28;100.00;143316.34;105913;1290;25293;-65
2024/03/29 15:29:17;;;;;;;4.20;1.80;;;;;;;4.29;100.00;143319.06;105789;1275;22543;-71
2024/03/29 15:32:04;;;;;;;6.60;2.10;;;;;;;4.32;100.00;143327.56;105911;1282;22563;-68
2024/03/29 15:34:50;;;;;;;6.60;2.30;;;;;;;4.34;100.00;143331.53;105807;1291;22544;-72
2024/03/29 15:37:38;;;;;;;3.90;2.10;;;;;;;4.35;100.00;143333.80;106098;1287;22543;-66
2024/03/29 15:40:24;;;;;;;5.10;2.20;;;;;;;4.34;100.00;143330.30;106674;1273;24273;-65
2024/03/29 15:43:11;;;;;;;7.80;2.40;;;;;;;4.29;100.00;143317.58;106838;1262;22528;-66
2024/03/29 15:45:58;;;;;;;8.70;2.70;;;;;;;4.21;100.00;143299.84;106725;1280;22494;-64
2024/03/29 15:48:44;;;;;;;9.30;2.70;;;;;;;4.17;100.00;143288.38;106633;1280;22552;-64
2024/03/29 15:51:30;;;;;;;6.60;2.70;;;;;;;4.15;100.00;143284.91;106691;1265;22530;-70
2024/03/29 15:54:19;;;;;;;7.00;2.70;;;;;;;4.02;100.00;143253.20;106784;1272;24433;-67
2024/03/29 15:57:06;;;;;;;6.10;3.00;;;;;;;3.74;100.00;143185.36;106624;1279;22538;-67
2024/03/29 15:59:53;;;;;;;6.20;3.40;;;;;;;3.48;100.00;143121.25;106630;1279;25293;-68
2024/03/29 16:02:48;;;;;;;5.40;2.90;;;;;;;3.27;100.00;143069.66;106649;1279;25347;-69
2024/03/29 16:05:34;;;;;;;4.10;1.80;;;;;;;3.06;100.00;143020.05;106741;1277;23002;-62
2024/03/29 16:08:21;;;;;;;5.30;2.60;;;;;;;2.91;100.00;142982.66;106815;1273;25350;-69
2024/03/29 16:11:07;;;;;;;5.20;2.00;;;;;;;2.79;100.00;142955.23;106606;1262;22549;-66
2024/03/29 16:13:56;;;;;;;5.50;2.30;;;;;;;2.66;100.00;142922.84;106600;1279;22537;-67
2024/03/29 16:16:43;;;;;;;3.60;1.70;;;;;;;2.58;100.00;142901.91;106600;1280;25294;-65
2024/03/29 16:19:30;;;;;;;3.70;1.80;;;;;;;2.52;100.00;142886.45;106615;1278;22625;-66
2024/03/29 16:22:16;;;;;;;7.10;2.70;;;;;;;2.32;100.00;142839.14;106785;1275;25373;-63
2024/03/29 16:25:03;;;;;;;6.60;2.90;;;;;;;2.19;100.00;142807.00;106677;1275;22533;-72
2024/03/29 16:27:49;;;;;;;7.20;3.90;;;;;;;2.05;100.00;142772.13;106644;1278;23099;-67
2024/03/29 16:30:37;;;;;;;8.80;3.50;;;;;;;1.94;100.00;142747.97;106670;1273;22538;-67
2024/03/29 16:33:23;;;;;;;13.60;5.50;;;;;;;1.89;100.00;142736.28;106651;1262;22531;-65
2024/03/29 16:36:09;;;;;;;10.20;5.80;;;;;;;1.90;100.00;142737.27;106629;1279;22526;-68
2024/03/29 16:38:56;;;;;;;9.50;4.40;;;;;;;1.89;100.00;142735.53;106659;1279;25379;-66
2024/03/29 16:41:43;;;;;;;8.20;3.70;;;;;;;1.89;100.00;142733.78;106633;1278;24208;-71
2024/03/29 16:44:30;;;;;;;8.70;4.20;;;;;;;1.88;100.00;142731.78;106609;1278;25596;-66
2024/03/29 16:47:16;;;;;;;7.00;3.90;;;;;;;1.83;100.00;142720.09;106641;1278;22535;-72
2024/03/29 16:50:05;;;;;;;8.60;3.80;;;;;;;1.77;100.00;142704.41;106650;1278;25344;-69
2024/03/29 16:52:51;;;;;;;7.90;3.60;;;;;;;1.72;100.00;142692.94;106957;1273;22547;-66
2024/03/29 16:55:38;;;;;;;9.40;3.30;;;;;;;1.66;100.00;142679.50;106661;1278;24384;-68
2024/03/29 16:58:27;;;;;;;8.80;2.80;;;;;;;1.59;100.00;142660.33;106631;1279;24512;-68
2024/03/29 17:01:14;;;;;;;7.60;3.50;;;;;;;1.50;100.00;142639.16;106649;1278;22521;-68
2024/03/29 17:04:01;;;;;;;7.40;4.10;;;;;;;1.44;100.00;142625.23;106642;1279;22530;-65
2024/03/29 17:06:48;;;;;;;7.50;3.80;;;;;;;1.39;100.00;142613.53;106655;1278;22525;-65
2024/03/29 17:09:39;;;;;;;5.70;3.10;;;;;;;1.37;100.00;142607.58;106593;1278;25271;-65
2024/03/29 17:12:26;;;;;;;6.40;3.40;;;;;;;1.33;100.00;142598.59;106544;1278;22639;-67
2024/03/29 17:15:13;;;;;;;7.00;3.40;;;;;;;1.27;100.00;142583.16;106493;1275;22646;-66
2024/03/29 17:17:59;;;;;;;4.80;2.50;;;;;;;1.21;100.00;142569.97;106535;1272;25590;-68
2024/03/29 17:20:45;;;;;;;5.90;2.50;;;;;;;1.18;100.00;142562.00;106599;1278;22526;-64
2024/03/29 17:23:32;;;;;;;5.50;3.10;;;;;;;1.17;100.00;142559.53;106554;1279;25271;-68
2024/03/29 17:26:18;;;;;;;11.70;4.50;;;;;;;1.15;100.00;142555.30;106857;1267;22946;-69
2024/03/29 17:29:04;;;;;;;13.40;6.10;;;;;;;1.13;100.00;142549.58;106539;1279;25288;-64
2024/03/29 17:31:52;;;;;;;16.50;7.30;;;;;;;1.10;100.00;142542.59;106483;1279;22990;-66
2024/03/29 17:34:56;;;;;;;13.20;4.90;;;;;;;1.07;100.00;142536.66;106472;1279;25290;-65
2024/03/29 17:37:42;;;;;;;10.30;5.20;;;;;;;1.07;100.00;142535.41;106457;1264;22543;-69
2024/03/29 17:40:32;;;;;;;8.60;4.80;;;;;;;1.07;100.00;142535.41;106638;1271;22782;-66
2024/03/29 17:43:18;;;;;;;9.00;5.00;;;;;;;1.07;100.00;142534.66;106502;1279;25239;-71
2024/03/29 17:46:04;;;;;;;10.20;4.90;;;;;;;1.05;100.00;142529.92;106549;1273;22527;-71
2024/03/29 17:48:50;;;;;;;7.80;4.80;;;;;;;0.98;100.00;142513.27;106734;1272;24213;-64
2024/03/29 17:51:37;;;;;;;8.90;5.00;;;;;;;0.87;100.00;142487.13;106887;1276;22530;-69
2024/03/29 17:54:23;;;;;;;11.30;5.30;;;;;;;0.75;100.00;142456.77;106654;1272;24186;-71
2024/03/29 17:57:09;;;;;;;11.80;5.90;;;;;;;0.63;100.00;142427.66;106619;1279;22534;-67
2024/03/29 17:59:55;;;;;;;9.60;5.90;;;;;;;0.52;100.00;142400.05;106632;1279;22533;-64
2024/03/29 18:02:42;;;;;;;12.10;6.20;;;;;;;0.47;100.00;142388.11;106600;1279;25377;-64
2024/03/29 18:05:28;;;;;;;11.50;5.30;;;;;;;0.43;100.00;142379.92;106620;1279;22534;-66
2024/03/29 18:08:15;;;;;;;10.90;5.20;;;;;;;0.39;100.00;142370.47;106585;1279;22527;-69
2024/03/29 18:11:02;;;;;;;7.90;3.60;;;;;;;0.36;100.00;142363.03;106662;1279;22530;-70
2024/03/29 18:13:48;;;;;;;6.50;2.80;;;;;;;0.40;100.00;142373.20;106611;1280;22806;-68
2024/03/29 18:16:35;;;;;;;6.80;3.20;;;;;;;0.50;100.00;142397.08;106635;1276;25287;-65
2024/03/29 18:19:25;;;;;;;12.30;6.70;;;;;;;0.60;100.00;142421.94;106637;1273;22537;-70
2024/03/29 18:22:11;;;;;;;9.30;5.60;;;;;;;0.61;100.00;142423.19;106569;1273;22541;-66
2024/03/29 18:24:58;;;;;;;9.20;5.50;;;;;;;0.62;100.00;142426.92;106602;1279;22614;-69
2024/03/29 18:27:44;;;;;;;12.60;7.90;;;;;;;0.64;100.00;142430.91;106623;1279;24378;-68
2024/03/29 18:30:35;;;;;;;11.10;6.90;;;;;;;0.63;100.00;142428.16;106592;1278;22528;-68
2024/03/29 18:33:21;;;;;;;10.50;6.30;;;;;;;0.60;100.00;142422.20;106738;1272;22533;-66
2024/03/29 18:36:08;;;;;;;9.30;6.00;;;;;;;0.58;100.00;142415.47;106701;1271;22536;-66
2024/03/29 18:38:54;;;;;;;9.90;5.30;;;;;;;0.56;100.00;142410.25;106701;1279;25354;-65
2024/03/29 18:41:41;;;;;;;8.90;5.10;;;;;;;0.57;100.00;142414.25;106753;1276;25359;-63
2024/03/29 18:44:27;;;;;;;13.20;7.50;;;;;;;0.61;100.00;142424.17;106598;1278;22532;-68
2024/03/29 18:47:14;;;;;;;21.50;11.50;;;;;;;0.63;100.00;142428.16;106643;1278;22524;-65
2024/03/29 18:50:01;;;;;;;14.00;8.60;;;;;;;0.62;100.00;142426.67;106608;1278;22658;-69
2024/03/29 18:52:50;;;;;;;15.20;9.10;;;;;;;0.58;100.00;142417.22;106641;1278;22658;-64
2024/03/29 18:55:37;;;;;;;13.60;8.30;;;;;;;0.54;100.00;142407.03;106752;1273;25304;-68
2024/03/29 18:58:48;;;;;;;15.10;8.50;;;;;;;0.51;100.00;142399.56;106920;1274;24314;-65
2024/03/29 19:01:35;;;;;;;31.00;18.10;;;;;;;0.52;100.00;142401.56;106802;1277;24249;-64
2024/03/29 19:04:21;;;;;;;36.40;19.30;;;;;;;0.49;100.00;142393.09;106590;1270;22537;-67
2024/03/29 19:07:08;;;;;;;38.90;21.20;;;;;;;0.44;100.00;142380.66;106574;1277;25341;-72
2024/03/29 19:09:55;;;;;;;38.10;22.10;;;;;;;0.37;100.00;142365.48;106617;1273;22526;-67
2024/03/29 19:12:41;;;;;;;38.60;20.10;;;;;;;0.32;100.00;142351.33;106650;1276;25331;-66
2024/03/29 19:15:28;;;;;;;32.90;19.40;;;;;;;0.28;100.00;142342.38;106617;1278;23910;-64
2024/03/29 19:18:17;;;;;;;33.30;18.90;;;;;;;0.25;100.00;142334.16;106598;1261;22542;-69
2024/03/29 19:21:03;;;;;;;29.80;17.30;;;;;;;0.21;100.00;142326.72;106580;1278;25284;-70
2024/03/29 19:23:50;;;;;;;27.80;16.60;;;;;;;0.21;100.00;142327.20;106547;1278;25294;-67
2024/03/29 19:26:36;;;;;;;27.70;16.70;;;;;;;0.21;100.00;142326.47;106602;1264;22536;-65
2024/03/29 19:29:23;;;;;;;28.10;16.30;;;;;;;0.20;100.00;142325.22;106576;1272;22531;-64
2024/03/29 19:32:09;;;;;;;29.60;17.40;;;;;;;0.23;100.00;142329.19;106755;1270;22561;-63
2024/03/29 19:34:55;;;;;;;25.80;14.90;;;;;;;0.24;100.00;142331.19;106605;1278;25370;-66
2024/03/29 19:37:42;;;;;;;27.30;15.50;;;;;;;0.26;100.00;142337.91;106887;1270;22537;-67
2024/03/29 19:40:29;;;;;;;27.70;18.00;;;;;;;0.27;100.00;142339.63;106625;1278;25374;-66
2024/03/29 19:43:15;;;;;;;26.40;15.20;;;;;;;0.27;100.00;142340.86;106618;1278;22535;-70
2024/03/29 19:46:02;;;;;;;26.40;16.10;;;;;;;0.25;100.00;142333.91;106651;1258;22541;-69
2024/03/29 19:48:49;;;;;;;29.10;16.60;;;;;;;0.21;100.00;142326.22;106890;1272;25353;-69
2024/03/29 19:51:35;;;;;;;25.00;16.80;;;;;;;0.21;100.00;142326.97;106665;1278;22540;-67
2024/03/29 19:54:21;;;;;;;23.50;14.20;;;;;;;0.22;100.00;142328.19;106594;1277;22538;-69
2024/03/29 19:57:08;;;;;;;26.40;15.60;;;;;;;0.23;100.00;142329.44;106577;1278;22526;-69
2024/03/29 19:59:55;;;;;;;22.90;13.50;;;;;;;0.22;100.00;142329.19;106710;1269;25476;-67
2024/03/29 20:02:41;;;;;;;20.80;12.20;;;;;;;0.22;100.00;142327.94;106722;1273;24235;-67
2024/03/29 20:05:27;;;;;;;19.30;11.70;;;;;;;0.21;100.00;142325.97;106583;1277;22536;-65
2024/03/29 20:08:13;;;;;;;26.80;14.60;;;;;;;0.20;100.00;142325.22;106700;1263;22565;-60
2024/03/29 20:11:00;;;;;;;23.20;13.10;;;;;;;0.21;100.00;142325.72;106548;1273;24259;-64
2024/03/29 20:13:46;;;;;;;22.90;13.70;;;;;;;0.21;100.00;142325.97;106611;1278;22555;-68
2024/03/29 20:16:34;;;;;;;21.60;12.90;;;;;;;0.19;100.00;142320.98;106604;1278;22534;-68
2024/03/29 20:19:26;;;;;;;22.00;12.60;;;;;;;0.17;100.00;142318.00;106619;1270;22541;-67
2024/03/29 20:22:19;;;;;;;20.40;12.20;;;;;;;0.15;100.00;142312.03;106669;1270;22532;-62
2024/03/29 20:25:06;;;;;;;18.00;9.90;;;;;;;0.14;100.00;142308.78;106613;1278;25226;-67
2024/03/29 20:27:52;;;;;;;20.20;12.10;;;;;;;0.14;100.00;142309.53;106605;1279;25362;-63
2024/03/29 20:30:39;;;;;;;17.80;11.00;;;;;;;0.15;100.00;142312.03;106634;1279;22535;-65
2024/03/29 20:33:30;;;;;;;21.30;13.70;;;;;;;0.16;100.00;142314.52;106653;1278;22545;-64
2024/03/29 20:36:19;;;;;;;19.70;13.20;;;;;;;0.16;100.00;142313.52;106661;1279;26515;-69
2024/03/29 20:39:05;;;;;;;21.70;14.30;;;;;;;0.12;100.00;142303.33;106621;1279;22532;-71
2024/03/29 20:41:55;;;;;;;24.00;14.90;;;;;;;0.07;100.00;142293.16;106588;1279;25283;-71
2024/03/29 20:44:46;;;;;;;22.60;13.70;;;;;;;0.04;100.00;142284.70;106547;1279;25300;-64
2024/03/29 20:47:34;;;;;;;19.00;10.80;;;;;;;0.01;100.00;142277.23;106696;1279;22554;-67
2024/03/29 20:50:22;;;;;;;18.20;10.90;;;;;;;0.01;100.00;142276.75;106637;1279;24389;-66
2024/03/29 20:53:09;;;;;;;15.60;9.90;;;;;;;0.01;100.00;142276.00;106630;1279;22614;-64
2024/03/29 20:55:55;;;;;;;15.40;9.30;;;;;;;-0.00;100.00;142274.52;106633;1279;24187;-66
2024/03/29 20:58:42;;;;;;;17.40;9.30;;;;;;;-0.02;100.00;142270.78;106640;1257;25483;-70
2024/03/29 21:08:15;;;;;;;13.00;8.20;;;;;;;-0.05;100.00;142263.78;106944;1261;22537;-69
2024/03/29 21:11:03;;;;;;;13.90;8.40;;;;;;;-0.04;100.00;142265.28;106624;1278;24212;-66
2024/03/29 21:13:49;;;;;;;14.70;7.90;;;;;;;-0.06;100.00;142260.80;106622;1266;22533;-69
2024/03/29 21:16:57;;;;;;;17.10;9.50;;;;;;;-0.06;100.00;142261.05;106526;1278;22530;-67
2024/03/29 21:19:47;;;;;;;13.60;7.50;;;;;;;-0.08;100.00;142256.83;106533;1278;24260;-64
2024/03/29 21:22:34;;;;;;;13.20;7.50;;;;;;;-0.07;100.00;142258.06;106562;1278;23314;-62
2024/03/29 21:25:23;;;;;;;13.60;8.00;;;;;;;-0.05;100.00;142262.55;106585;1278;22550;-68
2024/03/29 21:28:11;;;;;;;13.80;8.90;;;;;;;-0.04;100.00;142266.28;106580;1278;22526;-67
2024/03/29 21:31:04;;;;;;;13.80;8.30;;;;;;;-0.05;100.00;142263.28;106615;1278;24222;-66
2024/03/29 21:33:52;;;;;;;10.80;6.90;;;;;;;-0.07;100.00;142258.83;106645;1278;25542;-70
2024/03/29 21:36:41;;;;;;;11.40;7.10;;;;;;;-0.08;100.00;142255.09;106565;1278;25256;-65
2024/03/29 21:39:27;;;;;;;10.20;6.30;;;;;;;-0.10;100.00;142250.63;106670;1278;25239;-66
2024/03/29 21:42:15;;;;;;;12.00;6.50;;;;;;;-0.10;100.00;142251.38;106642;1278;25456;-64
2024/03/29 21:45:08;;;;;;;10.50;7.30;;;;;;;-0.08;100.00;142255.84;106648;1278;22558;-67
2024/03/29 21:47:57;;;;;;;12.80;7.00;;;;;;;-0.06;100.00;142259.83;106733;1270;22613;-64
2024/03/29 21:50:52;;;;;;;11.70;7.60;;;;;;;-0.09;100.00;142253.36;106856;1264;22534;-66
2024/03/29 21:53:43;;;;;;;13.50;7.00;;;;;;;-0.15;100.00;142238.97;106700;1272;22656;-69
2024/03/29 21:56:41;;;;;;;12.70;7.60;;;;;;;-0.20;100.00;142226.75;106656;1264;22626;-64
2024/03/29 21:59:27;;;;;;;8.10;5.20;;;;;;;-0.23;100.00;142220.30;106807;1273;24212;-66
2024/03/29 22:02:14;;;;;;;10.20;6.10;;;;;;;-0.25;100.00;142215.09;106640;1278;22531;-65
2024/03/29 22:05:01;;;;;;;9.80;6.00;;;;;;;-0.24;100.00;142218.33;106588;1257;24240;-67
2024/03/29 22:07:47;;;;;;;15.90;8.00;;;;;;;-0.22;100.00;142221.78;106587;1278;22528;-68
2024/03/29 22:10:33;;;;;;;11.90;7.50;;;;;;;-0.20;100.00;142225.02;106658;1278;22555;-68
2024/03/29 22:13:19;;;;;;;12.90;7.50;;;;;;;-0.22;100.00;142222.78;106629;1278;22523;-65
2024/03/29 22:16:05;;;;;;;12.10;7.00;;;;;;;-0.25;100.00;142215.31;106780;1272;22656;-68
2024/03/29 22:18:52;;;;;;;13.70;6.40;;;;;;;-0.27;100.00;142209.61;106700;1278;24411;-67
2024/03/29 22:21:39;;;;;;;12.10;7.00;;;;;;;-0.28;100.00;142207.39;106602;1278;25307;-66
2024/03/29 22:24:26;;;;;;;12.00;7.80;;;;;;;-0.27;100.00;142209.63;106693;1263;22530;-67
2024/03/29 22:27:12;;;;;;;11.80;6.60;;;;;;;-0.28;100.00;142207.14;106617;1279;25543;-63
2024/03/29 22:29:58;;;;;;;13.50;8.30;;;;;;;-0.29;100.00;142203.91;106636;1279;22642;-70
2024/03/29 22:32:45;;;;;;;13.20;8.00;;;;;;;-0.33;100.00;142196.19;106625;1279;22534;-68
2024/03/29 22:35:31;;;;;;;12.10;7.50;;;;;;;-0.37;100.00;142185.50;106633;1279;25370;-69
2024/03/29 22:38:17;;;;;;;12.20;7.40;;;;;;;-0.41;100.00;142175.08;106648;1279;22538;-65
2024/03/29 22:41:04;;;;;;;13.30;7.90;;;;;;;-0.44;100.00;142168.11;106671;1279;25313;-70
2024/03/29 22:43:50;;;;;;;14.10;7.50;;;;;;;-0.45;100.00;142166.63;106606;1279;22527;-67
2024/03/29 22:46:36;;;;;;;11.30;7.10;;;;;;;-0.45;100.00;142165.14;106593;1279;25349;-62
2024/03/29 22:49:24;;;;;;;13.90;8.20;;;;;;;-0.47;100.00;142160.41;106604;1279;22537;-65
2024/03/29 22:52:10;;;;;;;12.30;7.30;;;;;;;-0.50;100.00;142152.47;106758;1275;22646;-67
2024/03/29 22:54:56;;;;;;;11.00;6.60;;;;;;;-0.54;100.00;142143.78;106624;1262;24278;-63
2024/03/29 22:57:43;;;;;;;13.50;7.30;;;;;;;-0.57;100.00;142137.56;106607;1278;24363;-63
2024/03/29 23:00:29;;;;;;;10.40;5.90;;;;;;;-0.58;100.00;142133.83;106603;1278;22530;-66
2024/03/29 23:03:16;;;;;;;9.90;6.50;;;;;;;-0.58;100.00;142134.58;106639;1278;22550;-69
2024/03/29 23:06:02;;;;;;;10.90;6.50;;;;;;;-0.57;100.00;142136.06;106777;1270;25351;-66
2024/03/29 23:08:48;;;;;;;10.70;5.70;;;;;;;-0.58;100.00;142133.09;106693;1273;22534;-62
2024/03/29 23:11:34;;;;;;;10.00;6.30;;;;;;;-0.61;100.00;142126.88;106678;1277;22531;-67
2024/03/29 23:14:21;;;;;;;10.50;5.90;;;;;;;-0.62;100.00;142123.39;106698;1277;22539;-64
2024/03/29 23:17:07;;;;;;;11.50;6.10;;;;;;;-0.61;100.00;142126.38;106713;1277;22527;-63
2024/03/29 23:19:53;;;;;;;10.90;5.10;;;;;;;-0.58;100.00;142132.84;106674;1277;25356;-64
2024/03/29 23:22:40;;;;;;;9.40;6.10;;;;;;;-0.56;100.00;142139.30;106666;1261;24231;-64
2024/03/29 23:25:26;;;;;;;8.80;5.80;;;;;;;-0.56;100.00;142138.78;106458;1277;22531;-64
2024/03/29 23:28:15;;;;;;;8.60;5.30;;;;;;;-0.58;100.00;142133.58;106476;1277;22533;-65
2024/03/29 23:31:05;;;;;;;9.30;5.20;;;;;;;-0.61;100.00;142125.63;106552;1277;22543;-65
2024/03/29 23:33:51;;;;;;;11.10;5.00;;;;;;;-0.64;100.00;142118.66;106476;1277;24256;-59
2024/03/29 23:36:37;;;;;;;13.10;5.60;;;;;;;-0.67;100.00;142111.72;106610;1277;25354;-62
2024/03/29 23:39:27;;;;;;;8.90;5.30;;;;;;;-0.68;100.00;142110.97;106667;1277;23903;-70
2024/03/29 23:42:14;;;;;;;9.70;5.00;;;;;;;-0.69;100.00;142107.50;106654;1277;22549;-68
2024/03/29 23:45:01;;;;;;;7.30;4.40;;;;;;;-0.72;100.00;142101.03;106717;1277;25360;-67
2024/03/29 23:47:48;;;;;;;8.10;5.30;;;;;;;-0.72;100.00;142100.78;106673;1277;25347;-66
2024/03/29 23:50:34;;;;;;;11.20;5.10;;;;;;;-0.74;100.00;142094.58;106660;1277;24186;-68
2024/03/29 23:53:20;;;;;;;9.30;4.90;;;;;;;-0.80;100.00;142081.41;106565;1277;24250;-67
2024/03/29 23:56:06;;;;;;;9.40;5.00;;;;;;;-0.82;100.00;142075.67;106460;1277;24209;-67
2024/03/29 23:58:56;;;;;;;8.80;4.90;;;;;;;-0.82;100.00;142075.45;106531;1277;25340;-61
